sensor_id;sensor_type;location;lat;lon;timestamp;P1;durP1;ratioP1;P2;durP2;ratioP2
23121;SDS011;11730;51.248;22.534;2023-06-10T00:02:16;10.00;;;6.45;;
23121;SDS011;11730;51.248;22.534;2023-06-10T00:04:43;7.75;;;5.85;;
23121;SDS011;11730;51.248;22.534;2023-06-10T00:07:10;8.05;;;5.90;;
23121;SDS011;11730;51.248;22.534;2023-06-10T00:09:38;7.28;;;5.82;;
23121;SDS011;11730;51.248;22.534;2023-06-10T00:12:05;9.20;;;5.40;;
23121;SDS011;11730;51.248;22.534;2023-06-10T00:14:35;7.65;;;5.80;;
23121;SDS011;11730;51.248;22.534;2023-06-10T00:17:06;7.70;;;5.90;;
23121;SDS011;11730;51.248;22.534;2023-06-10T00:19:37;5.97;;;5.38;;
23121;SDS011;11730;51.248;22.534;2023-06-10T00:22:07;7.40;;;5.85;;
23121;SDS011;11730;51.248;22.534;2023-06-10T00:24:35;7.05;;;5.97;;
23121;SDS011;11730;51.248;22.534;2023-06-10T00:27:02;9.60;;;6.10;;
23121;SDS011;11730;51.248;22.534;2023-06-10T00:29:30;6.78;;;5.53;;
23121;SDS011;11730;51.248;22.534;2023-06-10T00:31:57;6.43;;;5.75;;
23121;SDS011;11730;51.248;22.534;2023-06-10T00:34:24;9.02;;;5.43;;
23121;SDS011;11730;51.248;22.534;2023-06-10T00:36:51;8.35;;;6.03;;
23121;SDS011;11730;51.248;22.534;2023-06-10T00:39:18;6.82;;;5.63;;
23121;SDS011;11730;51.248;22.534;2023-06-10T00:41:45;10.05;;;6.35;;
23121;SDS011;11730;51.248;22.534;2023-06-10T00:44:12;7.97;;;6.10;;
23121;SDS011;11730;51.248;22.534;2023-06-10T00:46:39;7.05;;;5.75;;
23121;SDS011;11730;51.248;22.534;2023-06-10T00:49:06;6.40;;;5.75;;
23121;SDS011;11730;51.248;22.534;2023-06-10T00:51:34;5.97;;;5.38;;
23121;SDS011;11730;51.248;22.534;2023-06-10T00:54:02;6.72;;;5.70;;
23121;SDS011;11730;51.248;22.534;2023-06-10T00:56:30;6.75;;;5.97;;
23121;SDS011;11730;51.248;22.534;2023-06-10T00:58:59;8.63;;;5.97;;
23121;SDS011;11730;51.248;22.534;2023-06-10T01:01:26;9.70;;;6.45;;
23121;SDS011;11730;51.248;22.534;2023-06-10T01:03:53;8.15;;;6.35;;
23121;SDS011;11730;51.248;22.534;2023-06-10T01:06:24;6.30;;;5.70;;
23121;SDS011;11730;51.248;22.534;2023-06-10T01:09:08;9.95;;;6.30;;
23121;SDS011;11730;51.248;22.534;2023-06-10T01:11:46;8.02;;;5.93;;
23121;SDS011;11730;51.248;22.534;2023-06-10T01:14:22;6.53;;;5.80;;
23121;SDS011;11730;51.248;22.534;2023-06-10T01:16:49;7.88;;;6.38;;
23121;SDS011;11730;51.248;22.534;2023-06-10T01:19:19;8.63;;;6.53;;
23121;SDS011;11730;51.248;22.534;2023-06-10T01:21:46;8.35;;;6.75;;
23121;SDS011;11730;51.248;22.534;2023-06-10T01:24:15;10.73;;;7.05;;
23121;SDS011;11730;51.248;22.534;2023-06-10T01:26:44;7.07;;;6.03;;
23121;SDS011;11730;51.248;22.534;2023-06-10T01:29:50;7.78;;;6.38;;
23121;SDS011;11730;51.248;22.534;2023-06-10T01:34:45;7.07;;;5.97;;
23121;SDS011;11730;51.248;22.534;2023-06-10T01:37:15;13.02;;;6.32;;
23121;SDS011;11730;51.248;22.534;2023-06-10T01:39:46;9.13;;;6.00;;
23121;SDS011;11730;51.248;22.534;2023-06-10T01:42:14;7.28;;;6.03;;
23121;SDS011;11730;51.248;22.534;2023-06-10T01:44:42;7.90;;;5.82;;
23121;SDS011;11730;51.248;22.534;2023-06-10T01:47:09;6.32;;;5.60;;
23121;SDS011;11730;51.248;22.534;2023-06-10T01:49:36;6.20;;;5.60;;
23121;SDS011;11730;51.248;22.534;2023-06-10T01:52:03;6.80;;;5.88;;
23121;SDS011;11730;51.248;22.534;2023-06-10T01:54:30;6.55;;;5.68;;
23121;SDS011;11730;51.248;22.534;2023-06-10T01:56:57;6.13;;;5.47;;
23121;SDS011;11730;51.248;22.534;2023-06-10T01:59:24;6.80;;;5.53;;
23121;SDS011;11730;51.248;22.534;2023-06-10T02:01:51;7.15;;;5.10;;
23121;SDS011;11730;51.248;22.534;2023-06-10T02:04:18;9.85;;;5.30;;
23121;SDS011;11730;51.248;22.534;2023-06-10T02:06:45;6.85;;;5.30;;
23121;SDS011;11730;51.248;22.534;2023-06-10T02:09:12;6.22;;;4.97;;
23121;SDS011;11730;51.248;22.534;2023-06-10T02:11:38;6.30;;;5.15;;
23121;SDS011;11730;51.248;22.534;2023-06-10T02:14:06;4.32;;;3.92;;
23121;SDS011;11730;51.248;22.534;2023-06-10T02:16:33;7.72;;;5.07;;
23121;SDS011;11730;51.248;22.534;2023-06-10T02:19:00;7.00;;;4.50;;
23121;SDS011;11730;51.248;22.534;2023-06-10T02:21:27;6.10;;;4.60;;
23121;SDS011;11730;51.248;22.534;2023-06-10T02:23:54;5.30;;;4.38;;
23121;SDS011;11730;51.248;22.534;2023-06-10T02:26:21;5.22;;;4.30;;
23121;SDS011;11730;51.248;22.534;2023-06-10T02:28:49;5.47;;;4.07;;
23121;SDS011;11730;51.248;22.534;2023-06-10T02:31:16;6.85;;;4.53;;
23121;SDS011;11730;51.248;22.534;2023-06-10T02:33:44;7.10;;;4.40;;
23121;SDS011;11730;51.248;22.534;2023-06-10T02:36:11;5.22;;;3.90;;
23121;SDS011;11730;51.248;22.534;2023-06-10T02:38:39;5.65;;;4.63;;
23121;SDS011;11730;51.248;22.534;2023-06-10T02:41:06;8.77;;;4.75;;
23121;SDS011;11730;51.248;22.534;2023-06-10T02:43:33;7.75;;;5.15;;
23121;SDS011;11730;51.248;22.534;2023-06-10T02:46:00;8.68;;;4.57;;
23121;SDS011;11730;51.248;22.534;2023-06-10T02:48:27;11.93;;;4.60;;
23121;SDS011;11730;51.248;22.534;2023-06-10T02:50:54;5.28;;;4.30;;
23121;SDS011;11730;51.248;22.534;2023-06-10T02:53:22;4.65;;;4.10;;
23121;SDS011;11730;51.248;22.534;2023-06-10T02:55:49;5.45;;;3.88;;
23121;SDS011;11730;51.248;22.534;2023-06-10T02:58:16;7.95;;;5.15;;
23121;SDS011;11730;51.248;22.534;2023-06-10T03:00:42;6.35;;;4.13;;
23121;SDS011;11730;51.248;22.534;2023-06-10T03:03:10;6.93;;;4.50;;
23121;SDS011;11730;51.248;22.534;2023-06-10T03:05:37;4.88;;;4.18;;
23121;SDS011;11730;51.248;22.534;2023-06-10T03:08:04;5.82;;;4.55;;
23121;SDS011;11730;51.248;22.534;2023-06-10T03:10:31;5.30;;;4.45;;
23121;SDS011;11730;51.248;22.534;2023-06-10T03:12:59;4.97;;;3.72;;
23121;SDS011;11730;51.248;22.534;2023-06-10T03:15:26;5.00;;;4.15;;
23121;SDS011;11730;51.248;22.534;2023-06-10T03:17:55;7.18;;;4.35;;
23121;SDS011;11730;51.248;22.534;2023-06-10T03:20:22;5.10;;;4.00;;
23121;SDS011;11730;51.248;22.534;2023-06-10T03:22:49;4.72;;;4.18;;
23121;SDS011;11730;51.248;22.534;2023-06-10T03:25:16;5.03;;;3.88;;
23121;SDS011;11730;51.248;22.534;2023-06-10T03:27:43;7.18;;;4.22;;
23121;SDS011;11730;51.248;22.534;2023-06-10T03:30:10;4.43;;;4.03;;
23121;SDS011;11730;51.248;22.534;2023-06-10T03:32:38;4.82;;;4.32;;
23121;SDS011;11730;51.248;22.534;2023-06-10T03:35:07;4.05;;;3.50;;
23121;SDS011;11730;51.248;22.534;2023-06-10T03:37:35;4.20;;;3.80;;
23121;SDS011;11730;51.248;22.534;2023-06-10T03:40:02;5.82;;;4.00;;
23121;SDS011;11730;51.248;22.534;2023-06-10T03:42:29;4.28;;;3.83;;
23121;SDS011;11730;51.248;22.534;2023-06-10T03:44:57;4.55;;;4.03;;
23121;SDS011;11730;51.248;22.534;2023-06-10T03:47:24;6.30;;;3.90;;
23121;SDS011;11730;51.248;22.534;2023-06-10T03:49:50;5.70;;;3.58;;
23121;SDS011;11730;51.248;22.534;2023-06-10T03:52:19;7.55;;;4.20;;
23121;SDS011;11730;51.248;22.534;2023-06-10T03:54:46;6.50;;;4.30;;
23121;SDS011;11730;51.248;22.534;2023-06-10T03:57:13;6.88;;;4.03;;
23121;SDS011;11730;51.248;22.534;2023-06-10T03:59:39;4.00;;;3.60;;
23121;SDS011;11730;51.248;22.534;2023-06-10T04:02:06;5.68;;;4.10;;
23121;SDS011;11730;51.248;22.534;2023-06-10T04:04:35;5.20;;;4.40;;
23121;SDS011;11730;51.248;22.534;2023-06-10T04:07:03;6.25;;;4.03;;
23121;SDS011;11730;51.248;22.534;2023-06-10T04:09:31;5.40;;;4.10;;
23121;SDS011;11730;51.248;22.534;2023-06-10T04:11:58;6.93;;;4.72;;
23121;SDS011;11730;51.248;22.534;2023-06-10T04:14:25;4.75;;;4.00;;
23121;SDS011;11730;51.248;22.534;2023-06-10T04:16:52;7.72;;;4.28;;
23121;SDS011;11730;51.248;22.534;2023-06-10T04:19:18;5.43;;;4.15;;
23121;SDS011;11730;51.248;22.534;2023-06-10T04:21:46;6.03;;;4.78;;
23121;SDS011;11730;51.248;22.534;2023-06-10T04:24:13;6.47;;;4.38;;
23121;SDS011;11730;51.248;22.534;2023-06-10T04:26:40;5.72;;;4.20;;
23121;SDS011;11730;51.248;22.534;2023-06-10T04:29:07;6.13;;;4.20;;
23121;SDS011;11730;51.248;22.534;2023-06-10T04:31:34;5.90;;;4.63;;
23121;SDS011;11730;51.248;22.534;2023-06-10T04:34:01;6.88;;;4.25;;
23121;SDS011;11730;51.248;22.534;2023-06-10T04:36:28;5.30;;;4.30;;
23121;SDS011;11730;51.248;22.534;2023-06-10T04:38:56;5.65;;;4.28;;
23121;SDS011;11730;51.248;22.534;2023-06-10T04:41:23;4.82;;;4.22;;
23121;SDS011;11730;51.248;22.534;2023-06-10T04:43:50;6.57;;;4.70;;
23121;SDS011;11730;51.248;22.534;2023-06-10T04:46:17;6.55;;;4.90;;
23121;SDS011;11730;51.248;22.534;2023-06-10T04:48:44;4.95;;;4.45;;
23121;SDS011;11730;51.248;22.534;2023-06-10T04:51:13;7.18;;;4.68;;
23121;SDS011;11730;51.248;22.534;2023-06-10T04:53:40;10.48;;;5.05;;
23121;SDS011;11730;51.248;22.534;2023-06-10T04:56:07;5.22;;;4.70;;
23121;SDS011;11730;51.248;22.534;2023-06-10T04:58:34;7.40;;;5.32;;
23121;SDS011;11730;51.248;22.534;2023-06-10T05:01:01;5.10;;;4.60;;
23121;SDS011;11730;51.248;22.534;2023-06-10T05:03:28;7.65;;;5.30;;
23121;SDS011;11730;51.248;22.534;2023-06-10T05:05:55;8.95;;;5.47;;
23121;SDS011;11730;51.248;22.534;2023-06-10T05:08:22;8.02;;;5.38;;
23121;SDS011;11730;51.248;22.534;2023-06-10T05:10:49;7.07;;;5.13;;
23121;SDS011;11730;51.248;22.534;2023-06-10T05:13:16;9.13;;;5.30;;
23121;SDS011;11730;51.248;22.534;2023-06-10T05:15:44;6.30;;;5.32;;
23121;SDS011;11730;51.248;22.534;2023-06-10T05:18:12;10.15;;;5.82;;
23121;SDS011;11730;51.248;22.534;2023-06-10T05:20:39;6.55;;;5.38;;
23121;SDS011;11730;51.248;22.534;2023-06-10T05:23:06;7.10;;;6.15;;
23121;SDS011;11730;51.248;22.534;2023-06-10T05:25:33;7.32;;;6.03;;
23121;SDS011;11730;51.248;22.534;2023-06-10T05:28:00;6.53;;;5.85;;
23121;SDS011;11730;51.248;22.534;2023-06-10T05:30:27;11.18;;;7.22;;
23121;SDS011;11730;51.248;22.534;2023-06-10T05:32:54;9.85;;;7.13;;
23121;SDS011;11730;51.248;22.534;2023-06-10T05:35:22;9.40;;;6.45;;
23121;SDS011;11730;51.248;22.534;2023-06-10T05:37:49;8.55;;;6.65;;
23121;SDS011;11730;51.248;22.534;2023-06-10T05:40:16;8.55;;;6.43;;
23121;SDS011;11730;51.248;22.534;2023-06-10T05:42:43;10.60;;;7.20;;
23121;SDS011;11730;51.248;22.534;2023-06-10T05:45:10;13.32;;;6.90;;
23121;SDS011;11730;51.248;22.534;2023-06-10T05:47:37;9.40;;;7.15;;
23121;SDS011;11730;51.248;22.534;2023-06-10T05:50:04;9.20;;;7.18;;
23121;SDS011;11730;51.248;22.534;2023-06-10T05:52:35;18.42;;;8.00;;
23121;SDS011;11730;51.248;22.534;2023-06-10T05:55:03;11.43;;;6.85;;
23121;SDS011;11730;51.248;22.534;2023-06-10T05:57:30;9.27;;;7.75;;
23121;SDS011;11730;51.248;22.534;2023-06-10T05:59:57;9.95;;;6.72;;
23121;SDS011;11730;51.248;22.534;2023-06-10T06:02:24;7.90;;;7.03;;
23121;SDS011;11730;51.248;22.534;2023-06-10T06:04:51;7.85;;;6.30;;
23121;SDS011;11730;51.248;22.534;2023-06-10T06:07:18;9.77;;;6.50;;
23121;SDS011;11730;51.248;22.534;2023-06-10T06:09:47;10.77;;;6.10;;
23121;SDS011;11730;51.248;22.534;2023-06-10T06:12:14;8.40;;;5.97;;
23121;SDS011;11730;51.248;22.534;2023-06-10T06:14:41;6.68;;;5.38;;
23121;SDS011;11730;51.248;22.534;2023-06-10T06:17:08;6.72;;;5.07;;
23121;SDS011;11730;51.248;22.534;2023-06-10T06:19:35;4.53;;;4.10;;
23121;SDS011;11730;51.248;22.534;2023-06-10T06:22:02;4.95;;;4.05;;
23121;SDS011;11730;51.248;22.534;2023-06-10T06:24:29;5.53;;;4.07;;
23121;SDS011;11730;51.248;22.534;2023-06-10T06:26:56;4.22;;;3.83;;
23121;SDS011;11730;51.248;22.534;2023-06-10T06:29:23;6.30;;;4.28;;
23121;SDS011;11730;51.248;22.534;2023-06-10T06:31:50;5.15;;;4.20;;
23121;SDS011;11730;51.248;22.534;2023-06-10T06:34:17;5.78;;;3.40;;
23121;SDS011;11730;51.248;22.534;2023-06-10T06:36:44;5.60;;;3.47;;
23121;SDS011;11730;51.248;22.534;2023-06-10T06:39:11;3.63;;;2.80;;
23121;SDS011;11730;51.248;22.534;2023-06-10T06:41:38;6.15;;;2.95;;
23121;SDS011;11730;51.248;22.534;2023-06-10T06:44:05;5.63;;;3.20;;
23121;SDS011;11730;51.248;22.534;2023-06-10T06:46:32;3.10;;;2.53;;
23121;SDS011;11730;51.248;22.534;2023-06-10T06:48:59;4.35;;;2.65;;
23121;SDS011;11730;51.248;22.534;2023-06-10T06:51:25;3.55;;;2.63;;
23121;SDS011;11730;51.248;22.534;2023-06-10T06:53:52;3.60;;;2.72;;
23121;SDS011;11730;51.248;22.534;2023-06-10T06:56:23;4.20;;;2.33;;
23121;SDS011;11730;51.248;22.534;2023-06-10T06:58:50;3.22;;;2.30;;
23121;SDS011;11730;51.248;22.534;2023-06-10T07:01:17;2.80;;;2.40;;
23121;SDS011;11730;51.248;22.534;2023-06-10T07:03:44;4.43;;;3.78;;
23121;SDS011;11730;51.248;22.534;2023-06-10T07:06:12;3.97;;;3.25;;
23121;SDS011;11730;51.248;22.534;2023-06-10T07:08:39;2.30;;;2.08;;
23121;SDS011;11730;51.248;22.534;2023-06-10T07:11:06;2.05;;;1.85;;
23121;SDS011;11730;51.248;22.534;2023-06-10T07:13:33;3.60;;;2.80;;
23121;SDS011;11730;51.248;22.534;2023-06-10T07:16:00;4.07;;;2.00;;
23121;SDS011;11730;51.248;22.534;2023-06-10T07:18:27;3.42;;;2.70;;
23121;SDS011;11730;51.248;22.534;2023-06-10T07:20:53;2.40;;;2.15;;
23121;SDS011;11730;51.248;22.534;2023-06-10T07:23:20;3.92;;;2.78;;
23121;SDS011;11730;51.248;22.534;2023-06-10T07:25:47;1.98;;;1.85;;
23121;SDS011;11730;51.248;22.534;2023-06-10T07:28:14;5.32;;;2.13;;
23121;SDS011;11730;51.248;22.534;2023-06-10T07:30:41;4.30;;;2.08;;
23121;SDS011;11730;51.248;22.534;2023-06-10T07:33:08;6.20;;;4.47;;
23121;SDS011;11730;51.248;22.534;2023-06-10T07:35:37;3.55;;;2.08;;
23121;SDS011;11730;51.248;22.534;2023-06-10T07:38:04;3.00;;;2.30;;
23121;SDS011;11730;51.248;22.534;2023-06-10T07:40:31;5.85;;;3.83;;
23121;SDS011;11730;51.248;22.534;2023-06-10T07:43:00;3.00;;;2.42;;
23121;SDS011;11730;51.248;22.534;2023-06-10T07:45:27;4.95;;;2.85;;
23121;SDS011;11730;51.248;22.534;2023-06-10T07:47:54;4.70;;;2.83;;
23121;SDS011;11730;51.248;22.534;2023-06-10T07:50:22;5.72;;;3.63;;
23121;SDS011;11730;51.248;22.534;2023-06-10T07:52:49;3.83;;;2.63;;
23121;SDS011;11730;51.248;22.534;2023-06-10T07:55:16;3.10;;;2.80;;
23121;SDS011;11730;51.248;22.534;2023-06-10T07:57:43;3.63;;;3.33;;
23121;SDS011;11730;51.248;22.534;2023-06-10T08:00:10;6.60;;;3.85;;
23121;SDS011;11730;51.248;22.534;2023-06-10T08:02:37;4.43;;;2.80;;
23121;SDS011;11730;51.248;22.534;2023-06-10T08:05:04;4.45;;;2.83;;
23121;SDS011;11730;51.248;22.534;2023-06-10T08:07:32;3.20;;;2.55;;
23121;SDS011;11730;51.248;22.534;2023-06-10T08:09:59;3.22;;;2.75;;
23121;SDS011;11730;51.248;22.534;2023-06-10T08:12:25;3.92;;;3.42;;
23121;SDS011;11730;51.248;22.534;2023-06-10T08:14:52;3.92;;;2.90;;
23121;SDS011;11730;51.248;22.534;2023-06-10T08:17:21;3.38;;;3.08;;
23121;SDS011;11730;51.248;22.534;2023-06-10T08:19:48;3.70;;;3.13;;
23121;SDS011;11730;51.248;22.534;2023-06-10T08:22:15;7.47;;;6.05;;
23121;SDS011;11730;51.248;22.534;2023-06-10T08:24:43;3.70;;;3.40;;
23121;SDS011;11730;51.248;22.534;2023-06-10T08:27:14;9.55;;;3.88;;
23121;SDS011;11730;51.248;22.534;2023-06-10T08:29:41;4.30;;;3.88;;
23121;SDS011;11730;51.248;22.534;2023-06-10T08:32:08;5.75;;;4.22;;
23121;SDS011;11730;51.248;22.534;2023-06-10T08:34:35;4.10;;;3.70;;
23121;SDS011;11730;51.248;22.534;2023-06-10T08:37:03;4.68;;;4.00;;
23121;SDS011;11730;51.248;22.534;2023-06-10T08:39:30;6.20;;;5.20;;
23121;SDS011;11730;51.248;22.534;2023-06-10T08:42:11;5.93;;;4.30;;
23121;SDS011;11730;51.248;22.534;2023-06-10T08:44:47;8.30;;;4.47;;
23121;SDS011;11730;51.248;22.534;2023-06-10T08:47:18;6.38;;;4.47;;
23121;SDS011;11730;51.248;22.534;2023-06-10T08:49:48;5.28;;;4.50;;
23121;SDS011;11730;51.248;22.534;2023-06-10T08:52:16;5.03;;;4.40;;
23121;SDS011;11730;51.248;22.534;2023-06-10T08:55:31;5.10;;;4.38;;
23121;SDS011;11730;51.248;22.534;2023-06-10T08:57:43;4.97;;;4.10;;
23121;SDS011;11730;51.248;22.534;2023-06-10T09:00:12;4.72;;;4.05;;
23121;SDS011;11730;51.248;22.534;2023-06-10T09:02:40;7.38;;;4.05;;
23121;SDS011;11730;51.248;22.534;2023-06-10T09:05:07;4.70;;;4.22;;
23121;SDS011;11730;51.248;22.534;2023-06-10T09:07:35;5.78;;;4.82;;
23121;SDS011;11730;51.248;22.534;2023-06-10T09:10:03;8.18;;;5.22;;
23121;SDS011;11730;51.248;22.534;2023-06-10T09:12:34;6.97;;;4.25;;
23121;SDS011;11730;51.248;22.534;2023-06-10T09:15:01;11.80;;;4.10;;
23121;SDS011;11730;51.248;22.534;2023-06-10T09:17:29;4.38;;;3.40;;
23121;SDS011;11730;51.248;22.534;2023-06-10T09:19:56;3.40;;;3.10;;
23121;SDS011;11730;51.248;22.534;2023-06-10T09:22:24;6.57;;;3.42;;
23121;SDS011;11730;51.248;22.534;2023-06-10T09:25:05;3.80;;;3.45;;
23121;SDS011;11730;51.248;22.534;2023-06-10T09:30:29;3.58;;;3.28;;
23121;SDS011;11730;51.248;22.534;2023-06-10T09:33:00;3.92;;;3.47;;
23121;SDS011;11730;51.248;22.534;2023-06-10T09:35:28;3.20;;;2.63;;
23121;SDS011;11730;51.248;22.534;2023-06-10T09:37:57;2.63;;;2.42;;
23121;SDS011;11730;51.248;22.534;2023-06-10T09:40:26;3.58;;;2.90;;
23121;SDS011;11730;51.248;22.534;2023-06-10T09:43:00;4.15;;;2.65;;
23121;SDS011;11730;51.248;22.534;2023-06-10T09:45:29;5.72;;;2.70;;
23121;SDS011;11730;51.248;22.534;2023-06-10T09:47:58;5.25;;;3.03;;
23121;SDS011;11730;51.248;22.534;2023-06-10T09:50:25;4.07;;;3.00;;
23121;SDS011;11730;51.248;22.534;2023-06-10T09:52:52;15.30;;;11.43;;
23121;SDS011;11730;51.248;22.534;2023-06-10T09:55:19;4.28;;;2.90;;
23121;SDS011;11730;51.248;22.534;2023-06-10T09:57:48;4.68;;;3.47;;
23121;SDS011;11730;51.248;22.534;2023-06-10T10:00:16;3.53;;;2.92;;
23121;SDS011;11730;51.248;22.534;2023-06-10T10:02:47;6.00;;;2.58;;
23121;SDS011;11730;51.248;22.534;2023-06-10T10:05:17;3.55;;;2.97;;
23121;SDS011;11730;51.248;22.534;2023-06-10T10:07:45;3.97;;;2.92;;
23121;SDS011;11730;51.248;22.534;2023-06-10T10:10:13;5.97;;;3.40;;
23121;SDS011;11730;51.248;22.534;2023-06-10T10:12:42;3.97;;;3.17;;
23121;SDS011;11730;51.248;22.534;2023-06-10T10:15:09;3.60;;;3.10;;
23121;SDS011;11730;51.248;22.534;2023-06-10T10:17:40;4.72;;;3.25;;
23121;SDS011;11730;51.248;22.534;2023-06-10T10:20:28;4.10;;;3.00;;
23121;SDS011;11730;51.248;22.534;2023-06-10T10:22:57;4.22;;;3.10;;
23121;SDS011;11730;51.248;22.534;2023-06-10T10:25:29;5.25;;;3.13;;
23121;SDS011;11730;51.248;22.534;2023-06-10T10:28:08;4.55;;;3.28;;
23121;SDS011;11730;51.248;22.534;2023-06-10T10:30:40;4.28;;;2.83;;
23121;SDS011;11730;51.248;22.534;2023-06-10T10:33:17;4.95;;;3.50;;
23121;SDS011;11730;51.248;22.534;2023-06-10T10:35:46;3.72;;;3.28;;
23121;SDS011;11730;51.248;22.534;2023-06-10T10:38:13;4.72;;;3.63;;
23121;SDS011;11730;51.248;22.534;2023-06-10T10:40:41;3.83;;;3.38;;
23121;SDS011;11730;51.248;22.534;2023-06-10T10:43:10;4.60;;;3.35;;
23121;SDS011;11730;51.248;22.534;2023-06-10T10:45:37;3.90;;;3.28;;
23121;SDS011;11730;51.248;22.534;2023-06-10T10:48:05;5.93;;;4.40;;
23121;SDS011;11730;51.248;22.534;2023-06-10T10:53:05;7.85;;;3.83;;
23121;SDS011;11730;51.248;22.534;2023-06-10T10:55:32;5.35;;;3.90;;
23121;SDS011;11730;51.248;22.534;2023-06-10T10:58:03;4.93;;;3.85;;
23121;SDS011;11730;51.248;22.534;2023-06-10T11:00:35;9.20;;;4.93;;
23121;SDS011;11730;51.248;22.534;2023-06-10T11:05:43;7.60;;;4.68;;
23121;SDS011;11730;51.248;22.534;2023-06-10T11:09:00;8.48;;;4.68;;
23121;SDS011;11730;51.248;22.534;2023-06-10T11:11:17;8.18;;;4.05;;
23121;SDS011;11730;51.248;22.534;2023-06-10T11:16:39;7.30;;;5.50;;
23121;SDS011;11730;51.248;22.534;2023-06-10T11:19:15;6.97;;;4.35;;
23121;SDS011;11730;51.248;22.534;2023-06-10T11:21:58;8.00;;;4.65;;
23121;SDS011;11730;51.248;22.534;2023-06-10T11:24:28;8.48;;;6.10;;
23121;SDS011;11730;51.248;22.534;2023-06-10T11:27:14;6.57;;;5.00;;
23121;SDS011;11730;51.248;22.534;2023-06-10T11:32:28;9.32;;;6.13;;
23121;SDS011;11730;51.248;22.534;2023-06-10T11:35:00;6.50;;;5.00;;
23121;SDS011;11730;51.248;22.534;2023-06-10T11:37:30;9.95;;;5.47;;
23121;SDS011;11730;51.248;22.534;2023-06-10T11:39:57;5.68;;;4.32;;
23121;SDS011;11730;51.248;22.534;2023-06-10T11:42:25;9.00;;;5.28;;
23121;SDS011;11730;51.248;22.534;2023-06-10T11:44:53;8.85;;;5.30;;
23121;SDS011;11730;51.248;22.534;2023-06-10T11:47:20;8.35;;;4.57;;
23121;SDS011;11730;51.248;22.534;2023-06-10T11:49:57;7.78;;;4.80;;
23121;SDS011;11730;51.248;22.534;2023-06-10T11:52:28;5.63;;;4.53;;
23121;SDS011;11730;51.248;22.534;2023-06-10T11:54:58;6.05;;;4.60;;
23121;SDS011;11730;51.248;22.534;2023-06-10T11:57:26;10.35;;;4.40;;
23121;SDS011;11730;51.248;22.534;2023-06-10T11:59:53;6.00;;;4.05;;
23121;SDS011;11730;51.248;22.534;2023-06-10T12:02:20;5.85;;;4.57;;
23121;SDS011;11730;51.248;22.534;2023-06-10T12:04:48;5.85;;;4.30;;
23121;SDS011;11730;51.248;22.534;2023-06-10T12:07:18;8.98;;;5.03;;
23121;SDS011;11730;51.248;22.534;2023-06-10T12:09:46;7.80;;;5.07;;
23121;SDS011;11730;51.248;22.534;2023-06-10T12:12:13;5.45;;;4.18;;
23121;SDS011;11730;51.248;22.534;2023-06-10T12:17:37;5.25;;;3.97;;
23121;SDS011;11730;51.248;22.534;2023-06-10T12:20:08;6.10;;;4.95;;
23121;SDS011;11730;51.248;22.534;2023-06-10T12:22:50;5.95;;;3.65;;
23121;SDS011;11730;51.248;22.534;2023-06-10T12:25:17;6.00;;;4.03;;
23121;SDS011;11730;51.248;22.534;2023-06-10T12:27:53;8.95;;;4.40;;
23121;SDS011;11730;51.248;22.534;2023-06-10T12:30:22;6.35;;;4.63;;
23121;SDS011;11730;51.248;22.534;2023-06-10T12:32:50;4.63;;;4.22;;
23121;SDS011;11730;51.248;22.534;2023-06-10T12:35:22;11.27;;;7.80;;
23121;SDS011;11730;51.248;22.534;2023-06-10T12:38:01;8.85;;;6.10;;
23121;SDS011;11730;51.248;22.534;2023-06-10T12:40:31;6.15;;;4.80;;
23121;SDS011;11730;51.248;22.534;2023-06-10T12:43:00;6.35;;;5.55;;
23121;SDS011;11730;51.248;22.534;2023-06-10T12:50:37;6.15;;;4.93;;
23121;SDS011;11730;51.248;22.534;2023-06-10T12:53:05;8.38;;;4.63;;
23121;SDS011;11730;51.248;22.534;2023-06-10T12:55:33;8.82;;;5.35;;
23121;SDS011;11730;51.248;22.534;2023-06-10T12:58:00;6.07;;;5.28;;
23121;SDS011;11730;51.248;22.534;2023-06-10T13:00:28;6.90;;;5.68;;
23121;SDS011;11730;51.248;22.534;2023-06-10T13:02:56;6.35;;;5.43;;
23121;SDS011;11730;51.248;22.534;2023-06-10T13:05:26;6.20;;;5.35;;
23121;SDS011;11730;51.248;22.534;2023-06-10T13:07:54;6.10;;;5.40;;
23121;SDS011;11730;51.248;22.534;2023-06-10T13:10:21;8.07;;;6.72;;
23121;SDS011;11730;51.248;22.534;2023-06-10T13:12:51;8.68;;;6.45;;
23121;SDS011;11730;51.248;22.534;2023-06-10T13:15:19;6.90;;;5.65;;
23121;SDS011;11730;51.248;22.534;2023-06-10T13:17:46;7.10;;;5.10;;
23121;SDS011;11730;51.248;22.534;2023-06-10T13:20:16;6.13;;;5.03;;
23121;SDS011;11730;51.248;22.534;2023-06-10T13:22:44;7.88;;;5.32;;
23121;SDS011;11730;51.248;22.534;2023-06-10T13:25:11;6.38;;;4.72;;
23121;SDS011;11730;51.248;22.534;2023-06-10T13:27:39;7.35;;;5.65;;
23121;SDS011;11730;51.248;22.534;2023-06-10T13:30:08;8.88;;;5.28;;
23121;SDS011;11730;51.248;22.534;2023-06-10T13:32:36;6.93;;;4.63;;
23121;SDS011;11730;51.248;22.534;2023-06-10T13:35:04;5.05;;;4.25;;
23121;SDS011;11730;51.248;22.534;2023-06-10T13:37:31;7.43;;;4.95;;
23121;SDS011;11730;51.248;22.534;2023-06-10T13:40:00;6.55;;;4.97;;
23121;SDS011;11730;51.248;22.534;2023-06-10T13:42:28;8.88;;;4.43;;
23121;SDS011;11730;51.248;22.534;2023-06-10T13:44:55;6.60;;;4.75;;
23121;SDS011;11730;51.248;22.534;2023-06-10T13:47:25;4.88;;;4.10;;
23121;SDS011;11730;51.248;22.534;2023-06-10T13:49:53;5.35;;;4.25;;
23121;SDS011;11730;51.248;22.534;2023-06-10T13:52:20;4.00;;;3.55;;
23121;SDS011;11730;51.248;22.534;2023-06-10T13:54:46;5.13;;;4.00;;
23121;SDS011;11730;51.248;22.534;2023-06-10T13:57:13;5.65;;;3.75;;
23121;SDS011;11730;51.248;22.534;2023-06-10T13:59:40;7.47;;;4.05;;
23121;SDS011;11730;51.248;22.534;2023-06-10T14:02:07;5.10;;;3.78;;
23121;SDS011;11730;51.248;22.534;2023-06-10T14:04:35;5.72;;;4.10;;
23121;SDS011;11730;51.248;22.534;2023-06-10T14:07:02;6.45;;;4.15;;
23121;SDS011;11730;51.248;22.534;2023-06-10T14:09:30;6.75;;;4.03;;
23121;SDS011;11730;51.248;22.534;2023-06-10T14:11:57;6.95;;;4.95;;
23121;SDS011;11730;51.248;22.534;2023-06-10T14:14:24;6.57;;;4.75;;
23121;SDS011;11730;51.248;22.534;2023-06-10T14:16:51;5.57;;;4.85;;
23121;SDS011;11730;51.248;22.534;2023-06-10T14:19:18;7.70;;;4.78;;
23121;SDS011;11730;51.248;22.534;2023-06-10T14:21:45;5.22;;;4.32;;
23121;SDS011;11730;51.248;22.534;2023-06-10T14:24:13;5.45;;;4.53;;
23121;SDS011;11730;51.248;22.534;2023-06-10T14:26:40;7.13;;;4.65;;
23121;SDS011;11730;51.248;22.534;2023-06-10T14:29:07;7.65;;;5.05;;
23121;SDS011;11730;51.248;22.534;2023-06-10T14:31:35;6.55;;;4.97;;
23121;SDS011;11730;51.248;22.534;2023-06-10T14:34:02;18.25;;;12.18;;
23121;SDS011;11730;51.248;22.534;2023-06-10T14:36:28;5.20;;;4.60;;
23121;SDS011;11730;51.248;22.534;2023-06-10T14:38:55;8.80;;;4.90;;
23121;SDS011;11730;51.248;22.534;2023-06-10T14:41:23;7.43;;;4.78;;
23121;SDS011;11730;51.248;22.534;2023-06-10T14:43:51;9.38;;;5.22;;
23121;SDS011;11730;51.248;22.534;2023-06-10T14:46:18;9.02;;;6.80;;
23121;SDS011;11730;51.248;22.534;2023-06-10T14:48:47;6.70;;;5.03;;
23121;SDS011;11730;51.248;22.534;2023-06-10T14:51:14;7.80;;;5.82;;
23121;SDS011;11730;51.248;22.534;2023-06-10T14:53:41;6.60;;;4.88;;
23121;SDS011;11730;51.248;22.534;2023-06-10T14:56:08;8.80;;;5.45;;
23121;SDS011;11730;51.248;22.534;2023-06-10T14:58:35;6.97;;;5.50;;
23121;SDS011;11730;51.248;22.534;2023-06-10T15:01:02;9.32;;;6.53;;
23121;SDS011;11730;51.248;22.534;2023-06-10T15:03:30;6.63;;;5.28;;
23121;SDS011;11730;51.248;22.534;2023-06-10T15:05:57;6.70;;;5.72;;